sensor_id;sensor_type;location;lat;lon;timestamp;temperature;humidity
55785;DHT22;41709;52.536;5.688;2023-04-25T00:00:41;7.10;84.00
55785;DHT22;41709;52.536;5.688;2023-04-25T00:03:07;7.10;84.10
55785;DHT22;41709;52.536;5.688;2023-04-25T00:05:34;7.20;84.50
55785;DHT22;41709;52.536;5.688;2023-04-25T00:08:02;7.20;84.40
55785;DHT22;41709;52.536;5.688;2023-04-25T00:10:28;7.20;83.40
55785;DHT22;41709;52.536;5.688;2023-04-25T00:12:53;7.20;82.50
55785;DHT22;41709;52.536;5.688;2023-04-25T00:15:19;7.20;80.90
55785;DHT22;41709;52.536;5.688;2023-04-25T00:17:45;7.10;79.70
55785;DHT22;41709;52.536;5.688;2023-04-25T00:20:11;7.10;78.80
55785;DHT22;41709;52.536;5.688;2023-04-25T00:22:37;7.00;78.20
55785;DHT22;41709;52.536;5.688;2023-04-25T00:25:06;6.90;78.40
55785;DHT22;41709;52.536;5.688;2023-04-25T00:27:32;7.00;78.70
55785;DHT22;41709;52.536;5.688;2023-04-25T00:29:58;7.10;79.60
55785;DHT22;41709;52.536;5.688;2023-04-25T00:32:23;7.10;78.90
55785;DHT22;41709;52.536;5.688;2023-04-25T00:34:49;7.10;79.20
55785;DHT22;41709;52.536;5.688;2023-04-25T00:37:15;7.10;79.20
55785;DHT22;41709;52.536;5.688;2023-04-25T00:39:40;7.10;78.90
55785;DHT22;41709;52.536;5.688;2023-04-25T00:42:06;7.10;78.90
55785;DHT22;41709;52.536;5.688;2023-04-25T00:44:32;7.00;78.90
55785;DHT22;41709;52.536;5.688;2023-04-25T00:46:59;7.00;79.70
55785;DHT22;41709;52.536;5.688;2023-04-25T00:49:25;6.90;80.00
55785;DHT22;41709;52.536;5.688;2023-04-25T00:51:51;6.90;80.40
55785;DHT22;41709;52.536;5.688;2023-04-25T00:54:16;6.90;81.20
55785;DHT22;41709;52.536;5.688;2023-04-25T00:56:42;6.90;81.40
55785;DHT22;41709;52.536;5.688;2023-04-25T00:59:09;6.80;81.40
55785;DHT22;41709;52.536;5.688;2023-04-25T01:01:35;6.80;81.30
55785;DHT22;41709;52.536;5.688;2023-04-25T01:04:01;6.80;81.00
55785;DHT22;41709;52.536;5.688;2023-04-25T01:06:27;6.80;80.10
55785;DHT22;41709;52.536;5.688;2023-04-25T01:08:53;6.80;80.20
55785;DHT22;41709;52.536;5.688;2023-04-25T01:11:19;6.80;80.90
55785;DHT22;41709;52.536;5.688;2023-04-25T01:13:45;6.90;80.90
55785;DHT22;41709;52.536;5.688;2023-04-25T01:16:10;6.80;81.40
55785;DHT22;41709;52.536;5.688;2023-04-25T01:18:38;6.90;81.50
55785;DHT22;41709;52.536;5.688;2023-04-25T01:21:08;6.90;81.90
55785;DHT22;41709;52.536;5.688;2023-04-25T01:23:35;6.90;81.40
55785;DHT22;41709;52.536;5.688;2023-04-25T01:26:01;6.90;80.50
55785;DHT22;41709;52.536;5.688;2023-04-25T01:28:27;6.80;80.50
55785;DHT22;41709;52.536;5.688;2023-04-25T01:30:53;6.80;80.90
55785;DHT22;41709;52.536;5.688;2023-04-25T01:33:21;6.80;81.30
55785;DHT22;41709;52.536;5.688;2023-04-25T01:35:46;6.80;81.50
55785;DHT22;41709;52.536;5.688;2023-04-25T01:38:13;6.80;81.40
55785;DHT22;41709;52.536;5.688;2023-04-25T01:40:39;6.90;81.30
55785;DHT22;41709;52.536;5.688;2023-04-25T01:43:06;6.90;80.90
55785;DHT22;41709;52.536;5.688;2023-04-25T01:45:32;6.90;80.70
55785;DHT22;41709;52.536;5.688;2023-04-25T01:47:58;6.90;80.60
55785;DHT22;41709;52.536;5.688;2023-04-25T01:50:25;6.90;80.50
55785;DHT22;41709;52.536;5.688;2023-04-25T01:52:50;7.00;80.80
55785;DHT22;41709;52.536;5.688;2023-04-25T01:55:16;7.00;80.80
55785;DHT22;41709;52.536;5.688;2023-04-25T01:57:42;7.00;81.00
55785;DHT22;41709;52.536;5.688;2023-04-25T02:00:08;7.00;81.20
55785;DHT22;41709;52.536;5.688;2023-04-25T02:02:35;7.00;81.10
55785;DHT22;41709;52.536;5.688;2023-04-25T02:05:01;6.90;80.40
55785;DHT22;41709;52.536;5.688;2023-04-25T02:07:26;6.90;80.00
55785;DHT22;41709;52.536;5.688;2023-04-25T02:09:52;6.90;80.00
55785;DHT22;41709;52.536;5.688;2023-04-25T02:12:18;6.90;80.30
55785;DHT22;41709;52.536;5.688;2023-04-25T02:14:43;6.90;80.40
55785;DHT22;41709;52.536;5.688;2023-04-25T02:17:09;7.00;80.70
55785;DHT22;41709;52.536;5.688;2023-04-25T02:19:34;7.10;79.80
55785;DHT22;41709;52.536;5.688;2023-04-25T02:22:00;7.00;79.80
55785;DHT22;41709;52.536;5.688;2023-04-25T02:24:26;7.00;79.50
55785;DHT22;41709;52.536;5.688;2023-04-25T02:26:53;7.00;79.70
55785;DHT22;41709;52.536;5.688;2023-04-25T02:29:20;7.00;79.80
55785;DHT22;41709;52.536;5.688;2023-04-25T02:31:46;6.90;80.10
55785;DHT22;41709;52.536;5.688;2023-04-25T02:34:11;6.80;80.40
55785;DHT22;41709;52.536;5.688;2023-04-25T02:36:37;6.80;81.00
55785;DHT22;41709;52.536;5.688;2023-04-25T02:39:02;6.80;80.90
55785;DHT22;41709;52.536;5.688;2023-04-25T02:41:28;6.70;81.30
55785;DHT22;41709;52.536;5.688;2023-04-25T02:43:54;6.70;81.30
55785;DHT22;41709;52.536;5.688;2023-04-25T02:46:20;6.60;81.00
55785;DHT22;41709;52.536;5.688;2023-04-25T02:48:46;6.60;79.90
55785;DHT22;41709;52.536;5.688;2023-04-25T02:51:11;6.60;80.20
55785;DHT22;41709;52.536;5.688;2023-04-25T02:53:37;6.50;80.70
55785;DHT22;41709;52.536;5.688;2023-04-25T02:56:03;6.50;81.50
55785;DHT22;41709;52.536;5.688;2023-04-25T02:58:28;6.50;82.10
55785;DHT22;41709;52.536;5.688;2023-04-25T03:00:54;6.60;82.50
55785;DHT22;41709;52.536;5.688;2023-04-25T03:03:20;6.50;82.80
55785;DHT22;41709;52.536;5.688;2023-04-25T03:05:51;6.50;82.70
55785;DHT22;41709;52.536;5.688;2023-04-25T03:08:17;6.50;82.20
55785;DHT22;41709;52.536;5.688;2023-04-25T03:10:44;6.50;82.20
55785;DHT22;41709;52.536;5.688;2023-04-25T03:13:09;6.50;81.10
55785;DHT22;41709;52.536;5.688;2023-04-25T03:15:36;6.50;80.90
55785;DHT22;41709;52.536;5.688;2023-04-25T03:18:01;6.50;79.80
55785;DHT22;41709;52.536;5.688;2023-04-25T03:20:27;6.40;77.60
55785;DHT22;41709;52.536;5.688;2023-04-25T03:22:53;6.40;77.00
55785;DHT22;41709;52.536;5.688;2023-04-25T03:25:18;6.40;76.70
55785;DHT22;41709;52.536;5.688;2023-04-25T03:27:44;6.40;77.40
55785;DHT22;41709;52.536;5.688;2023-04-25T03:30:10;6.50;76.30
55785;DHT22;41709;52.536;5.688;2023-04-25T03:32:36;6.60;76.20
55785;DHT22;41709;52.536;5.688;2023-04-25T03:35:01;6.60;76.80
55785;DHT22;41709;52.536;5.688;2023-04-25T03:37:27;6.60;77.10
55785;DHT22;41709;52.536;5.688;2023-04-25T03:39:52;6.70;77.60
55785;DHT22;41709;52.536;5.688;2023-04-25T03:42:18;6.70;77.90
55785;DHT22;41709;52.536;5.688;2023-04-25T03:44:45;6.70;78.10
55785;DHT22;41709;52.536;5.688;2023-04-25T03:47:10;6.70;78.70
55785;DHT22;41709;52.536;5.688;2023-04-25T03:49:36;6.80;78.70
55785;DHT22;41709;52.536;5.688;2023-04-25T03:52:02;6.70;78.80
55785;DHT22;41709;52.536;5.688;2023-04-25T03:54:28;6.80;78.90
55785;DHT22;41709;52.536;5.688;2023-04-25T03:56:53;6.80;79.10
55785;DHT22;41709;52.536;5.688;2023-04-25T03:59:19;6.80;79.40
55785;DHT22;41709;52.536;5.688;2023-04-25T04:01:44;6.80;80.20
55785;DHT22;41709;52.536;5.688;2023-04-25T04:04:10;6.90;81.30
55785;DHT22;41709;52.536;5.688;2023-04-25T04:06:35;6.80;77.50
55785;DHT22;41709;52.536;5.688;2023-04-25T04:09:02;6.80;78.00
55785;DHT22;41709;52.536;5.688;2023-04-25T04:11:27;6.70;79.10
55785;DHT22;41709;52.536;5.688;2023-04-25T04:13:53;6.60;80.20
55785;DHT22;41709;52.536;5.688;2023-04-25T04:16:18;6.60;80.90
55785;DHT22;41709;52.536;5.688;2023-04-25T04:18:45;6.60;81.40
55785;DHT22;41709;52.536;5.688;2023-04-25T04:21:11;6.60;81.60
55785;DHT22;41709;52.536;5.688;2023-04-25T04:23:36;6.60;82.00
55785;DHT22;41709;52.536;5.688;2023-04-25T04:26:02;6.60;81.80
55785;DHT22;41709;52.536;5.688;2023-04-25T04:28:28;6.60;82.10
55785;DHT22;41709;52.536;5.688;2023-04-25T04:30:53;6.70;82.20
55785;DHT22;41709;52.536;5.688;2023-04-25T04:33:19;6.60;82.60
55785;DHT22;41709;52.536;5.688;2023-04-25T04:35:45;6.60;83.30
55785;DHT22;41709;52.536;5.688;2023-04-25T04:38:12;6.50;83.50
55785;DHT22;41709;52.536;5.688;2023-04-25T04:40:40;6.60;83.80
55785;DHT22;41709;52.536;5.688;2023-04-25T04:43:07;6.60;84.30
55785;DHT22;41709;52.536;5.688;2023-04-25T04:45:34;6.60;84.20
55785;DHT22;41709;52.536;5.688;2023-04-25T04:47:59;6.60;84.00
55785;DHT22;41709;52.536;5.688;2023-04-25T04:50:25;6.60;83.40
55785;DHT22;41709;52.536;5.688;2023-04-25T04:52:51;6.60;83.50
55785;DHT22;41709;52.536;5.688;2023-04-25T04:55:17;6.70;83.70
55785;DHT22;41709;52.536;5.688;2023-04-25T04:57:43;6.70;83.60
55785;DHT22;41709;52.536;5.688;2023-04-25T05:00:09;6.80;82.80
55785;DHT22;41709;52.536;5.688;2023-04-25T05:02:37;6.70;82.10
55785;DHT22;41709;52.536;5.688;2023-04-25T05:05:04;6.60;82.10
55785;DHT22;41709;52.536;5.688;2023-04-25T05:07:30;6.70;81.80
55785;DHT22;41709;52.536;5.688;2023-04-25T05:09:55;6.60;81.80
55785;DHT22;41709;52.536;5.688;2023-04-25T05:12:21;6.60;81.80
55785;DHT22;41709;52.536;5.688;2023-04-25T05:14:46;6.70;82.30
55785;DHT22;41709;52.536;5.688;2023-04-25T05:17:12;6.70;82.50
55785;DHT22;41709;52.536;5.688;2023-04-25T05:19:38;6.70;82.50
55785;DHT22;41709;52.536;5.688;2023-04-25T05:22:04;6.70;83.10
55785;DHT22;41709;52.536;5.688;2023-04-25T05:24:30;6.80;82.50
55785;DHT22;41709;52.536;5.688;2023-04-25T05:26:56;6.70;82.40
55785;DHT22;41709;52.536;5.688;2023-04-25T05:29:21;6.60;81.70
55785;DHT22;41709;52.536;5.688;2023-04-25T05:31:47;6.60;79.90
55785;DHT22;41709;52.536;5.688;2023-04-25T05:34:13;6.60;76.70
55785;DHT22;41709;52.536;5.688;2023-04-25T05:36:39;6.50;75.00
55785;DHT22;41709;52.536;5.688;2023-04-25T05:39:04;6.50;74.60
55785;DHT22;41709;52.536;5.688;2023-04-25T05:41:31;6.60;74.40
55785;DHT22;41709;52.536;5.688;2023-04-25T05:43:57;6.60;77.30
55785;DHT22;41709;52.536;5.688;2023-04-25T05:46:22;6.60;79.40
55785;DHT22;41709;52.536;5.688;2023-04-25T05:48:48;6.60;79.40
55785;DHT22;41709;52.536;5.688;2023-04-25T05:51:13;6.70;77.90
55785;DHT22;41709;52.536;5.688;2023-04-25T05:53:39;6.60;77.50
55785;DHT22;41709;52.536;5.688;2023-04-25T05:56:05;6.60;76.40
55785;DHT22;41709;52.536;5.688;2023-04-25T05:58:30;6.50;75.10
55785;DHT22;41709;52.536;5.688;2023-04-25T06:00:56;6.40;76.20
55785;DHT22;41709;52.536;5.688;2023-04-25T06:03:21;6.40;76.80
55785;DHT22;41709;52.536;5.688;2023-04-25T06:05:47;6.40;76.80
55785;DHT22;41709;52.536;5.688;2023-04-25T06:08:13;6.30;77.20
55785;DHT22;41709;52.536;5.688;2023-04-25T06:10:39;6.30;77.10
55785;DHT22;41709;52.536;5.688;2023-04-25T06:13:05;6.30;77.20
55785;DHT22;41709;52.536;5.688;2023-04-25T06:15:30;6.40;77.60
55785;DHT22;41709;52.536;5.688;2023-04-25T06:17:57;6.40;77.50
55785;DHT22;41709;52.536;5.688;2023-04-25T06:20:23;6.40;77.10
55785;DHT22;41709;52.536;5.688;2023-04-25T06:22:50;6.40;77.40
55785;DHT22;41709;52.536;5.688;2023-04-25T06:25:17;6.40;78.00
55785;DHT22;41709;52.536;5.688;2023-04-25T06:27:42;6.50;78.00
55785;DHT22;41709;52.536;5.688;2023-04-25T06:30:08;6.50;77.60
55785;DHT22;41709;52.536;5.688;2023-04-25T06:32:35;6.60;77.90
55785;DHT22;41709;52.536;5.688;2023-04-25T06:35:00;6.70;78.00
55785;DHT22;41709;52.536;5.688;2023-04-25T06:37:26;6.80;77.60
55785;DHT22;41709;52.536;5.688;2023-04-25T06:39:52;6.80;77.60
55785;DHT22;41709;52.536;5.688;2023-04-25T06:42:17;6.90;77.20
55785;DHT22;41709;52.536;5.688;2023-04-25T06:44:43;7.00;76.70
55785;DHT22;41709;52.536;5.688;2023-04-25T06:47:08;7.00;76.60
55785;DHT22;41709;52.536;5.688;2023-04-25T06:49:34;7.10;76.60
55785;DHT22;41709;52.536;5.688;2023-04-25T06:51:59;7.00;77.70
55785;DHT22;41709;52.536;5.688;2023-04-25T06:54:25;6.90;78.50
55785;DHT22;41709;52.536;5.688;2023-04-25T06:56:53;6.80;79.00
55785;DHT22;41709;52.536;5.688;2023-04-25T06:59:18;6.70;80.00
55785;DHT22;41709;52.536;5.688;2023-04-25T07:01:44;6.60;80.50
55785;DHT22;41709;52.536;5.688;2023-04-25T07:04:09;6.50;81.10
55785;DHT22;41709;52.536;5.688;2023-04-25T07:06:35;6.40;81.70
55785;DHT22;41709;52.536;5.688;2023-04-25T07:09:03;6.40;81.90
55785;DHT22;41709;52.536;5.688;2023-04-25T07:11:30;6.40;82.20
55785;DHT22;41709;52.536;5.688;2023-04-25T07:13:55;6.40;82.80
55785;DHT22;41709;52.536;5.688;2023-04-25T07:16:21;6.40;83.20
55785;DHT22;41709;52.536;5.688;2023-04-25T07:18:46;6.40;83.50
55785;DHT22;41709;52.536;5.688;2023-04-25T07:21:12;6.50;84.90
55785;DHT22;41709;52.536;5.688;2023-04-25T07:23:38;6.60;85.30
55785;DHT22;41709;52.536;5.688;2023-04-25T07:26:06;6.60;85.80
55785;DHT22;41709;52.536;5.688;2023-04-25T07:28:31;6.80;86.60
55785;DHT22;41709;52.536;5.688;2023-04-25T07:30:57;6.90;86.50
55785;DHT22;41709;52.536;5.688;2023-04-25T07:33:23;7.00;85.20
55785;DHT22;41709;52.536;5.688;2023-04-25T07:35:49;7.10;84.40
55785;DHT22;41709;52.536;5.688;2023-04-25T07:38:15;7.20;84.20
55785;DHT22;41709;52.536;5.688;2023-04-25T07:40:40;7.20;81.40
55785;DHT22;41709;52.536;5.688;2023-04-25T07:43:06;7.20;79.20
55785;DHT22;41709;52.536;5.688;2023-04-25T07:45:32;7.10;76.50
55785;DHT22;41709;52.536;5.688;2023-04-25T07:47:57;7.20;75.40
55785;DHT22;41709;52.536;5.688;2023-04-25T07:50:23;7.20;75.00
55785;DHT22;41709;52.536;5.688;2023-04-25T07:52:49;7.20;74.30
55785;DHT22;41709;52.536;5.688;2023-04-25T07:55:14;7.30;73.80
55785;DHT22;41709;52.536;5.688;2023-04-25T07:57:40;7.40;74.20
55785;DHT22;41709;52.536;5.688;2023-04-25T08:00:06;7.40;74.10
55785;DHT22;41709;52.536;5.688;2023-04-25T08:02:35;7.40;73.40
55785;DHT22;41709;52.536;5.688;2023-04-25T08:05:01;7.40;74.70
55785;DHT22;41709;52.536;5.688;2023-04-25T08:07:27;7.30;75.30
55785;DHT22;41709;52.536;5.688;2023-04-25T08:09:53;7.20;76.60
55785;DHT22;41709;52.536;5.688;2023-04-25T08:12:18;7.20;77.30
55785;DHT22;41709;52.536;5.688;2023-04-25T08:14:44;7.00;77.20
55785;DHT22;41709;52.536;5.688;2023-04-25T08:17:10;7.00;78.10
55785;DHT22;41709;52.536;5.688;2023-04-25T08:19:35;7.00;78.20
55785;DHT22;41709;52.536;5.688;2023-04-25T08:22:01;6.90;78.60
55785;DHT22;41709;52.536;5.688;2023-04-25T08:24:27;6.90;78.60
55785;DHT22;41709;52.536;5.688;2023-04-25T08:26:52;7.00;78.80
55785;DHT22;41709;52.536;5.688;2023-04-25T08:29:19;7.00;79.20
55785;DHT22;41709;52.536;5.688;2023-04-25T08:31:44;7.10;79.20
55785;DHT22;41709;52.536;5.688;2023-04-25T08:34:10;7.10;80.20
55785;DHT22;41709;52.536;5.688;2023-04-25T08:36:36;7.20;80.80
55785;DHT22;41709;52.536;5.688;2023-04-25T08:39:05;7.20;80.20
55785;DHT22;41709;52.536;5.688;2023-04-25T08:41:31;7.30;79.50
55785;DHT22;41709;52.536;5.688;2023-04-25T08:43:58;7.30;78.70
55785;DHT22;41709;52.536;5.688;2023-04-25T08:46:25;7.30;75.80
55785;DHT22;41709;52.536;5.688;2023-04-25T08:48:53;7.20;71.70
55785;DHT22;41709;52.536;5.688;2023-04-25T08:51:22;7.10;72.30
55785;DHT22;41709;52.536;5.688;2023-04-25T08:53:53;7.10;72.90
55785;DHT22;41709;52.536;5.688;2023-04-25T08:56:19;7.10;71.40
55785;DHT22;41709;52.536;5.688;2023-04-25T08:58:50;7.10;73.10
55785;DHT22;41709;52.536;5.688;2023-04-25T09:01:17;7.10;78.40
55785;DHT22;41709;52.536;5.688;2023-04-25T09:03:44;7.20;79.20
55785;DHT22;41709;52.536;5.688;2023-04-25T09:06:11;7.30;76.50
55785;DHT22;41709;52.536;5.688;2023-04-25T09:08:37;7.30;77.00
55785;DHT22;41709;52.536;5.688;2023-04-25T09:11:06;7.30;76.20
55785;DHT22;41709;52.536;5.688;2023-04-25T09:13:31;7.40;76.50
55785;DHT22;41709;52.536;5.688;2023-04-25T09:15:57;7.40;74.80
55785;DHT22;41709;52.536;5.688;2023-04-25T09:18:31;7.30;74.90
55785;DHT22;41709;52.536;5.688;2023-04-25T09:21:08;7.20;74.20
55785;DHT22;41709;52.536;5.688;2023-04-25T09:24:00;7.30;76.10
55785;DHT22;41709;52.536;5.688;2023-04-25T09:26:25;7.40;75.40
55785;DHT22;41709;52.536;5.688;2023-04-25T09:29:05;7.40;73.30
55785;DHT22;41709;52.536;5.688;2023-04-25T09:31:33;7.30;70.70
55785;DHT22;41709;52.536;5.688;2023-04-25T09:33:59;7.40;68.40
55785;DHT22;41709;52.536;5.688;2023-04-25T09:36:27;7.50;70.20
55785;DHT22;41709;52.536;5.688;2023-04-25T09:38:55;7.50;68.80
55785;DHT22;41709;52.536;5.688;2023-04-25T09:41:24;7.40;67.70
55785;DHT22;41709;52.536;5.688;2023-04-25T09:43:50;7.30;70.80
55785;DHT22;41709;52.536;5.688;2023-04-25T09:46:16;7.20;71.70
55785;DHT22;41709;52.536;5.688;2023-04-25T09:48:48;7.20;73.30
55785;DHT22;41709;52.536;5.688;2023-04-25T09:51:14;7.30;73.40
55785;DHT22;41709;52.536;5.688;2023-04-25T09:53:42;7.30;72.60
55785;DHT22;41709;52.536;5.688;2023-04-25T09:56:09;7.20;71.60
55785;DHT22;41709;52.536;5.688;2023-04-25T09:58:36;7.20;72.30
55785;DHT22;41709;52.536;5.688;2023-04-25T10:01:04;7.20;72.20
55785;DHT22;41709;52.536;5.688;2023-04-25T10:03:33;7.30;73.20
55785;DHT22;41709;52.536;5.688;2023-04-25T10:06:00;7.30;71.20
55785;DHT22;41709;52.536;5.688;2023-04-25T10:08:34;7.30;72.50
55785;DHT22;41709;52.536;5.688;2023-04-25T10:11:01;7.30;72.00
55785;DHT22;41709;52.536;5.688;2023-04-25T10:13:29;7.20;71.60
55785;DHT22;41709;52.536;5.688;2023-04-25T10:16:00;7.30;71.70
55785;DHT22;41709;52.536;5.688;2023-04-25T10:18:27;7.30;71.70
55785;DHT22;41709;52.536;5.688;2023-04-25T10:20:58;7.40;73.00
55785;DHT22;41709;52.536;5.688;2023-04-25T10:23:24;7.50;72.80
55785;DHT22;41709;52.536;5.688;2023-04-25T10:25:51;7.50;73.00
55785;DHT22;41709;52.536;5.688;2023-04-25T10:28:18;7.40;74.50
55785;DHT22;41709;52.536;5.688;2023-04-25T10:31:03;7.50;74.50
55785;DHT22;41709;52.536;5.688;2023-04-25T10:33:33;7.40;74.00
55785;DHT22;41709;52.536;5.688;2023-04-25T10:36:18;7.40;74.10
55785;DHT22;41709;52.536;5.688;2023-04-25T10:38:44;7.40;73.10
55785;DHT22;41709;52.536;5.688;2023-04-25T10:41:12;7.40;73.20
55785;DHT22;41709;52.536;5.688;2023-04-25T10:46:17;7.30;71.30
55785;DHT22;41709;52.536;5.688;2023-04-25T10:48:47;7.40;74.10
55785;DHT22;41709;52.536;5.688;2023-04-25T10:51:18;7.40;73.80
55785;DHT22;41709;52.536;5.688;2023-04-25T10:53:45;7.40;74.00
55785;DHT22;41709;52.536;5.688;2023-04-25T10:56:19;7.40;74.50
55785;DHT22;41709;52.536;5.688;2023-04-25T10:58:45;7.50;73.80
55785;DHT22;41709;52.536;5.688;2023-04-25T11:01:12;7.60;73.50
55785;DHT22;41709;52.536;5.688;2023-04-25T11:03:42;7.70;73.90
55785;DHT22;41709;52.536;5.688;2023-04-25T11:06:21;7.80;71.70
55785;DHT22;41709;52.536;5.688;2023-04-25T11:08:49;7.90;69.80
55785;DHT22;41709;52.536;5.688;2023-04-25T11:11:19;7.90;68.50
55785;DHT22;41709;52.536;5.688;2023-04-25T11:13:51;7.90;67.50
55785;DHT22;41709;52.536;5.688;2023-04-25T11:16:17;7.80;69.10
55785;DHT22;41709;52.536;5.688;2023-04-25T11:18:44;7.90;70.40
55785;DHT22;41709;52.536;5.688;2023-04-25T11:21:10;8.00;70.00
55785;DHT22;41709;52.536;5.688;2023-04-25T11:23:36;8.00;70.90
55785;DHT22;41709;52.536;5.688;2023-04-25T11:26:03;8.00;74.70
55785;DHT22;41709;52.536;5.688;2023-04-25T11:28:29;8.10;77.10
55785;DHT22;41709;52.536;5.688;2023-04-25T11:30:55;8.10;75.30
55785;DHT22;41709;52.536;5.688;2023-04-25T11:33:25;8.10;75.50
55785;DHT22;41709;52.536;5.688;2023-04-25T11:35:53;8.10;73.30
55785;DHT22;41709;52.536;5.688;2023-04-25T11:38:19;8.10;75.10
55785;DHT22;41709;52.536;5.688;2023-04-25T11:40:50;8.00;74.80
55785;DHT22;41709;52.536;5.688;2023-04-25T11:43:16;8.10;71.30
55785;DHT22;41709;52.536;5.688;2023-04-25T11:45:46;7.90;72.90
55785;DHT22;41709;52.536;5.688;2023-04-25T11:48:12;8.10;74.30
55785;DHT22;41709;52.536;5.688;2023-04-25T11:50:39;8.00;73.90
55785;DHT22;41709;52.536;5.688;2023-04-25T11:53:05;8.00;73.60
55785;DHT22;41709;52.536;5.688;2023-04-25T11:55:31;8.00;73.10
55785;DHT22;41709;52.536;5.688;2023-04-25T11:57:59;8.00;74.60
55785;DHT22;41709;52.536;5.688;2023-04-25T12:00:26;8.00;75.00
55785;DHT22;41709;52.536;5.688;2023-04-25T12:02:53;8.00;75.40
55785;DHT22;41709;52.536;5.688;2023-04-25T12:05:20;8.00;75.70
55785;DHT22;41709;52.536;5.688;2023-04-25T12:07:48;8.10;74.50
55785;DHT22;41709;52.536;5.688;2023-04-25T12:10:15;8.10;74.00
55785;DHT22;41709;52.536;5.688;2023-04-25T12:12:42;8.00;68.20
55785;DHT22;41709;52.536;5.688;2023-04-25T12:17:48;8.10;70.30
55785;DHT22;41709;52.536;5.688;2023-04-25T12:20:15;8.10;71.20
55785;DHT22;41709;52.536;5.688;2023-04-25T12:22:42;8.00;70.30
55785;DHT22;41709;52.536;5.688;2023-04-25T12:25:13;7.80;71.50
55785;DHT22;41709;52.536;5.688;2023-04-25T12:27:39;7.90;72.00
55785;DHT22;41709;52.536;5.688;2023-04-25T12:30:09;8.00;70.00
55785;DHT22;41709;52.536;5.688;2023-04-25T12:32:36;7.90;70.20
55785;DHT22;41709;52.536;5.688;2023-04-25T12:35:03;7.90;70.20
55785;DHT22;41709;52.536;5.688;2023-04-25T12:37:29;7.90;70.40
55785;DHT22;41709;52.536;5.688;2023-04-25T12:39:55;8.00;71.10
55785;DHT22;41709;52.536;5.688;2023-04-25T12:42:20;7.80;70.30
55785;DHT22;41709;52.536;5.688;2023-04-25T12:44:46;7.90;71.40
55785;DHT22;41709;52.536;5.688;2023-04-25T12:47:11;8.00;69.80
55785;DHT22;41709;52.536;5.688;2023-04-25T12:49:37;8.00;71.20
55785;DHT22;41709;52.536;5.688;2023-04-25T12:52:03;8.20;72.00
55785;DHT22;41709;52.536;5.688;2023-04-25T12:54:28;8.30;71.80
55785;DHT22;41709;52.536;5.688;2023-04-25T12:56:54;8.20;72.50
55785;DHT22;41709;52.536;5.688;2023-04-25T12:59:20;8.10;70.80
55785;DHT22;41709;52.536;5.688;2023-04-25T13:01:46;8.00;71.30
55785;DHT22;41709;52.536;5.688;2023-04-25T13:04:12;8.10;71.20
55785;DHT22;41709;52.536;5.688;2023-04-25T13:06:38;8.20;70.70
55785;DHT22;41709;52.536;5.688;2023-04-25T13:09:03;8.30;67.70
55785;DHT22;41709;52.536;5.688;2023-04-25T13:11:29;8.40;71.50
55785;DHT22;41709;52.536;5.688;2023-04-25T13:13:56;8.60;72.20
55785;DHT22;41709;52.536;5.688;2023-04-25T13:16:21;8.60;69.50
55785;DHT22;41709;52.536;5.688;2023-04-25T13:18:47;8.60;68.30
55785;DHT22;41709;52.536;5.688;2023-04-25T13:21:13;8.40;69.40
55785;DHT22;41709;52.536;5.688;2023-04-25T13:23:39;8.40;68.40
55785;DHT22;41709;52.536;5.688;2023-04-25T13:26:04;8.40;69.40
55785;DHT22;41709;52.536;5.688;2023-04-25T13:28:30;8.50;70.90
55785;DHT22;41709;52.536;5.688;2023-04-25T13:30:56;8.50;69.80
55785;DHT22;41709;52.536;5.688;2023-04-25T13:33:21;8.40;69.20
55785;DHT22;41709;52.536;5.688;2023-04-25T13:35:49;8.50;69.60
55785;DHT22;41709;52.536;5.688;2023-04-25T13:38:23;8.60;67.80
55785;DHT22;41709;52.536;5.688;2023-04-25T13:40:49;8.70;66.60
55785;DHT22;41709;52.536;5.688;2023-04-25T13:43:15;8.80;67.00
55785;DHT22;41709;52.536;5.688;2023-04-25T13:45:41;8.70;67.10
55785;DHT22;41709;52.536;5.688;2023-04-25T13:48:07;8.80;67.40
55785;DHT22;41709;52.536;5.688;2023-04-25T13:50:32;8.80;67.20
55785;DHT22;41709;52.536;5.688;2023-04-25T13:52:58;8.80;65.50
55785;DHT22;41709;52.536;5.688;2023-04-25T13:55:24;8.60;65.40
55785;DHT22;41709;52.536;5.688;2023-04-25T13:57:49;8.60;64.00
55785;DHT22;41709;52.536;5.688;2023-04-25T14:00:15;8.60;63.50
55785;DHT22;41709;52.536;5.688;2023-04-25T14:02:41;8.60;62.00
55785;DHT22;41709;52.536;5.688;2023-04-25T14:05:07;8.60;62.00
55785;DHT22;41709;52.536;5.688;2023-04-25T14:07:36;8.60;64.00
55785;DHT22;41709;52.536;5.688;2023-04-25T14:10:02;8.50;65.70
55785;DHT22;41709;52.536;5.688;2023-04-25T14:12:29;8.50;66.00
55785;DHT22;41709;52.536;5.688;2023-04-25T14:14:55;8.40;65.80
55785;DHT22;41709;52.536;5.688;2023-04-25T14:17:20;8.40;63.50
55785;DHT22;41709;52.536;5.688;2023-04-25T14:19:46;8.40;63.30
55785;DHT22;41709;52.536;5.688;2023-04-25T14:22:14;8.50;64.50
55785;DHT22;41709;52.536;5.688;2023-04-25T14:24:40;8.50;61.30
55785;DHT22;41709;52.536;5.688;2023-04-25T14:27:06;8.50;61.40
55785;DHT22;41709;52.536;5.688;2023-04-25T14:29:31;8.70;63.10
55785;DHT22;41709;52.536;5.688;2023-04-25T14:31:57;8.70;61.90
55785;DHT22;41709;52.536;5.688;2023-04-25T14:34:24;8.90;62.00
55785;DHT22;41709;52.536;5.688;2023-04-25T14:36:51;9.00;61.90
55785;DHT22;41709;52.536;5.688;2023-04-25T14:39:17;9.00;64.20
55785;DHT22;41709;52.536;5.688;2023-04-25T14:41:43;9.20;70.20
55785;DHT22;41709;52.536;5.688;2023-04-25T14:44:08;9.10;71.30
55785;DHT22;41709;52.536;5.688;2023-04-25T14:46:34;9.20;71.60
55785;DHT22;41709;52.536;5.688;2023-04-25T14:48:59;9.20;72.70
55785;DHT22;41709;52.536;5.688;2023-04-25T14:51:25;9.20;72.80
55785;DHT22;41709;52.536;5.688;2023-04-25T14:53:51;9.10;72.30
55785;DHT22;41709;52.536;5.688;2023-04-25T14:56:17;9.20;71.60
55785;DHT22;41709;52.536;5.688;2023-04-25T14:58:44;9.20;71.20
55785;DHT22;41709;52.536;5.688;2023-04-25T15:01:11;9.20;71.00
55785;DHT22;41709;52.536;5.688;2023-04-25T15:03:36;8.90;66.50
55785;DHT22;41709;52.536;5.688;2023-04-25T15:06:02;8.90;65.20
55785;DHT22;41709;52.536;5.688;2023-04-25T15:08:28;8.80;65.70
55785;DHT22;41709;52.536;5.688;2023-04-25T15:10:53;8.60;64.60
55785;DHT22;41709;52.536;5.688;2023-04-25T15:13:19;8.50;65.90
55785;DHT22;41709;52.536;5.688;2023-04-25T15:15:45;8.60;67.20
55785;DHT22;41709;52.536;5.688;2023-04-25T15:18:22;8.60;67.30
55785;DHT22;41709;52.536;5.688;2023-04-25T15:20:52;8.50;67.20
55785;DHT22;41709;52.536;5.688;2023-04-25T15:23:18;8.50;67.20
55785;DHT22;41709;52.536;5.688;2023-04-25T15:25:44;8.40;68.00
55785;DHT22;41709;52.536;5.688;2023-04-25T15:28:10;8.20;68.20
55785;DHT22;41709;52.536;5.688;2023-04-25T15:30:35;8.30;69.20
55785;DHT22;41709;52.536;5.688;2023-04-25T15:33:01;8.30;69.30
55785;DHT22;41709;52.536;5.688;2023-04-25T15:35:26;8.10;70.40
55785;DHT22;41709;52.536;5.688;2023-04-25T15:37:52;8.10;75.70
55785;DHT22;41709;52.536;5.688;2023-04-25T15:40:17;8.10;75.70
55785;DHT22;41709;52.536;5.688;2023-04-25T15:45:09;8.00;75.50
55785;DHT22;41709;52.536;5.688;2023-04-25T15:47:36;8.00;75.30